createdAt,value
2023-03-03T00:01:48.751Z,3.10
2023-03-03T00:04:20.684Z,3.20
2023-03-03T00:06:52.745Z,3.60
2023-03-03T00:09:24.617Z,4.10
2023-03-03T00:11:56.448Z,3.80
2023-03-03T00:14:28.258Z,3.67
2023-03-03T00:17:00.092Z,3.50
2023-03-03T00:19:31.953Z,3.70
2023-03-03T00:22:03.771Z,2.70
2023-03-03T00:24:35.584Z,3.30
2023-03-03T00:27:07.351Z,3.60
2023-03-03T00:29:39.325Z,3.20
2023-03-03T00:32:11.200Z,3.47
2023-03-03T00:34:43.251Z,3.47
2023-03-03T00:37:15.054Z,3.07
2023-03-03T00:39:46.974Z,3.93
2023-03-03T00:42:18.734Z,3.17
2023-03-03T00:44:50.507Z,2.97
2023-03-03T00:47:22.315Z,3.40
2023-03-03T00:49:54.117Z,3.47
2023-03-03T00:52:25.949Z,3.27
2023-03-03T00:54:57.720Z,3.70
2023-03-03T00:57:29.546Z,3.90
2023-03-03T01:00:01.763Z,3.70
2023-03-03T01:02:35.005Z,3.73
2023-03-03T01:05:06.838Z,3.47
2023-03-03T01:07:38.615Z,3.97
2023-03-03T01:10:10.427Z,4.27
2023-03-03T01:12:42.207Z,4.37
2023-03-03T01:15:14.028Z,3.67
2023-03-03T01:17:45.870Z,3.93
2023-03-03T01:20:17.691Z,4.20
2023-03-03T01:22:49.535Z,3.87
2023-03-03T01:25:21.352Z,4.23
2023-03-03T01:27:53.140Z,4.87
2023-03-03T01:30:25.024Z,4.17
2023-03-03T01:32:56.827Z,4.23
2023-03-03T01:35:28.617Z,4.10
2023-03-03T01:38:00.425Z,3.83
2023-03-03T01:40:32.461Z,4.37
2023-03-03T01:43:04.284Z,5.63
2023-03-03T01:45:36.090Z,4.30
2023-03-03T01:48:07.863Z,5.10
2023-03-03T01:50:39.843Z,4.50
2023-03-03T01:53:11.648Z,5.77
2023-03-03T01:55:43.471Z,4.53
2023-03-03T01:58:15.398Z,5.07
2023-03-03T02:00:47.194Z,5.03
2023-03-03T02:03:19.334Z,4.40
2023-03-03T02:05:51.150Z,5.73
2023-03-03T02:08:22.990Z,4.73
2023-03-03T02:10:54.894Z,4.60
2023-03-03T02:13:26.697Z,4.37
2023-03-03T02:15:59.492Z,4.87
2023-03-03T02:18:31.991Z,4.83
2023-03-03T02:21:03.908Z,4.87
2023-03-03T02:23:35.751Z,5.10
2023-03-03T02:26:07.901Z,4.90
2023-03-03T02:28:40.007Z,6.40
2023-03-03T02:31:11.953Z,4.90
2023-03-03T02:33:43.919Z,4.80
2023-03-03T02:36:15.733Z,5.13
2023-03-03T02:38:47.639Z,5.57
2023-03-03T02:41:19.486Z,5.90
